createdAt,value
2022-10-18T03:01:47.146Z,3.20
2022-10-18T03:04:14.540Z,4.15
2022-10-18T03:06:41.950Z,3.92
2022-10-18T03:09:09.927Z,3.92
2022-10-18T03:11:37.061Z,3.75
2022-10-18T03:14:04.128Z,3.72
2022-10-18T03:16:31.690Z,4.57
2022-10-18T03:18:58.914Z,3.60
2022-10-18T03:21:25.954Z,4.07
2022-10-18T03:23:53.026Z,4.47
2022-10-18T03:26:21.715Z,4.70
2022-10-18T03:28:48.895Z,5.38
2022-10-18T03:31:16.056Z,5.00
2022-10-18T03:33:43.355Z,5.43
2022-10-18T03:36:10.490Z,5.53
2022-10-18T03:38:37.581Z,5.00
2022-10-18T03:41:04.734Z,4.78
2022-10-18T03:43:32.041Z,4.93
2022-10-18T03:45:59.363Z,4.95
2022-10-18T03:48:26.449Z,5.15
2022-10-18T03:50:53.704Z,6.07
2022-10-18T03:53:20.958Z,4.40
2022-10-18T03:55:55.856Z,4.53
2022-10-18T03:58:24.013Z,3.92
2022-10-18T04:00:55.754Z,3.95
2022-10-18T04:03:23.651Z,4.28
2022-10-18T04:05:51.161Z,4.35
2022-10-18T04:08:21.119Z,4.30
2022-10-18T04:10:52.800Z,4.68
2022-10-18T04:13:19.885Z,5.30
2022-10-18T04:15:46.959Z,4.07
2022-10-18T04:18:14.129Z,4.63
2022-10-18T04:20:41.139Z,4.40
2022-10-18T04:23:08.329Z,4.43
2022-10-18T04:25:35.392Z,4.97
2022-10-18T04:28:02.513Z,4.85
2022-10-18T04:30:29.610Z,4.05
2022-10-18T04:32:57.005Z,4.70
2022-10-18T04:35:26.192Z,5.05
2022-10-18T04:37:53.295Z,5.15
2022-10-18T04:40:20.924Z,5.28
2022-10-18T04:42:48.100Z,4.72
2022-10-18T04:45:15.202Z,4.78
2022-10-18T04:47:42.259Z,5.07
2022-10-18T04:50:09.508Z,5.28
2022-10-18T04:52:36.614Z,4.95
2022-10-18T04:55:04.049Z,5.10
2022-10-18T04:57:31.402Z,4.50
2022-10-18T04:59:59.500Z,5.40
2022-10-18T05:02:26.800Z,5.65
2022-10-18T05:04:53.912Z,5.70
2022-10-18T05:07:21.074Z,6.72
2022-10-18T05:09:48.114Z,5.78
2022-10-18T05:12:15.190Z,5.28
2022-10-18T05:14:42.343Z,7.28
2022-10-18T05:17:09.471Z,7.18
2022-10-18T05:19:36.595Z,7.28
2022-10-18T05:22:03.628Z,7.65
2022-10-18T05:24:30.720Z,7.57
2022-10-18T05:26:58.602Z,9.25
2022-10-18T05:31:57.865Z,5.85
2022-10-18T05:34:27.449Z,6.72
2022-10-18T05:36:54.563Z,6.40
2022-10-18T05:39:21.725Z,6.30
2022-10-18T05:41:48.962Z,6.28
2022-10-18T05:44:16.179Z,6.13
2022-10-18T05:46:43.297Z,5.70
2022-10-18T05:49:14.055Z,5.85
2022-10-18T05:51:41.279Z,5.18
2022-10-18T05:54:09.650Z,6.15
2022-10-18T05:56:36.721Z,4.60
2022-10-18T05:59:12.247Z,4.80
2022-10-18T06:01:41.358Z,4.82
2022-10-18T06:04:10.351Z,4.90
2022-10-18T06:06:38.554Z,4.63
2022-10-18T06:09:07.955Z,4.95
2022-10-18T06:11:37.127Z,4.85
2022-10-18T06:14:05.199Z,5.05
2022-10-18T06:16:32.846Z,4.90
2022-10-18T06:19:00.272Z,4.55
2022-10-18T06:21:28.183Z,4.68
2022-10-18T06:23:58.123Z,5.45
2022-10-18T06:26:27.289Z,4.93
2022-10-18T06:28:54.479Z,5.22
2022-10-18T06:31:21.586Z,5.70
2022-10-18T06:33:49.402Z,6.53
2022-10-18T06:36:18.883Z,6.18
2022-10-18T06:38:46.276Z,6.25
2022-10-18T06:41:14.003Z,6.03
2022-10-18T06:43:41.268Z,5.68
2022-10-18T06:46:09.256Z,6.38
2022-10-18T06:48:37.069Z,5.70
2022-10-18T06:51:06.367Z,6.18
2022-10-18T06:53:43.669Z,7.60
2022-10-18T06:56:15.851Z,7.40
2022-10-18T06:58:43.013Z,6.78
2022-10-18T07:01:16.190Z,7.97
2022-10-18T07:06:13.817Z,7.32
2022-10-18T07:08:41.513Z,7.25
2022-10-18T07:11:13.954Z,9.15
2022-10-18T07:13:41.162Z,10.57
2022-10-18T07:16:14.114Z,10.35
2022-10-18T07:18:46.617Z,10.15
2022-10-18T07:21:18.542Z,10.65
2022-10-18T07:23:46.984Z,10.23
2022-10-18T07:26:26.127Z,10.80
2022-10-18T07:28:58.165Z,10.43
2022-10-18T07:31:25.618Z,10.20
2022-10-18T07:33:53.604Z,11.50
2022-10-18T07:36:22.310Z,9.55
2022-10-18T07:38:50.196Z,9.00
2022-10-18T07:41:17.334Z,8.70
2022-10-18T07:43:49.311Z,9.57
2022-10-18T07:46:16.606Z,7.90
2022-10-18T07:48:44.112Z,7.28
2022-10-18T07:51:11.980Z,12.40
2022-10-18T07:53:39.366Z,13.25
2022-10-18T07:56:11.734Z,12.68
2022-10-18T07:58:38.829Z,14.98
2022-10-18T08:01:07.857Z,14.73
2022-10-18T08:03:35.466Z,16.27
2022-10-18T08:06:04.002Z,14.80
2022-10-18T08:08:31.371Z,13.40
2022-10-18T08:11:15.003Z,12.40
2022-10-18T08:13:42.913Z,11.60
2022-10-18T08:16:15.726Z,10.70
2022-10-18T08:18:43.196Z,12.07
2022-10-18T08:21:12.178Z,12.85
2022-10-18T08:23:40.433Z,14.68
2022-10-18T08:26:10.201Z,12.82
2022-10-18T08:28:37.944Z,12.10
2022-10-18T08:31:12.034Z,11.93
2022-10-18T08:33:40.019Z,11.50
2022-10-18T08:36:09.170Z,13.80
2022-10-18T08:38:38.408Z,12.38
2022-10-18T08:41:33.315Z,16.67
2022-10-18T08:44:09.559Z,13.02
2022-10-18T08:46:39.289Z,13.68
2022-10-18T08:49:07.377Z,13.63
2022-10-18T08:51:48.863Z,14.07
2022-10-18T08:54:44.782Z,14.30
2022-10-18T08:57:18.353Z,14.07
2022-10-18T08:59:45.966Z,13.20
2022-10-18T09:02:31.645Z,13.07
2022-10-18T09:05:32.078Z,12.95
2022-10-18T09:08:18.506Z,14.35
2022-10-18T09:11:09.800Z,16.08
2022-10-18T09:13:59.075Z,15.73
2022-10-18T09:16:40.033Z,13.93
2022-10-18T09:19:12.512Z,13.27
2022-10-18T09:21:50.897Z,12.98
2022-10-18T09:24:37.388Z,11.27
2022-10-18T09:27:12.366Z,11.60
2022-10-18T09:30:09.241Z,10.82
2022-10-18T09:32:52.073Z,10.35
2022-10-18T09:35:24.858Z,11.20
2022-10-18T09:37:59.742Z,9.88
2022-10-18T09:40:30.508Z,10.52
2022-10-18T09:43:06.796Z,9.43
2022-10-18T09:45:40.695Z,8.88
2022-10-18T09:48:17.622Z,8.27
2022-10-18T09:50:55.165Z,7.93
2022-10-18T09:53:46.204Z,7.38
2022-10-18T09:56:20.452Z,7.15
2022-10-18T09:58:51.554Z,6.97
2022-10-18T10:01:25.399Z,7.00
2022-10-18T10:03:53.083Z,7.43
2022-10-18T10:06:25.015Z,7.25
2022-10-18T10:09:05.199Z,6.55
2022-10-18T10:11:38.896Z,6.43
2022-10-18T10:14:23.771Z,5.65
2022-10-18T10:17:03.485Z,6.93
2022-10-18T10:19:38.346Z,5.90
2022-10-18T10:22:14.393Z,5.65
2022-10-18T10:24:53.919Z,6.22
2022-10-18T10:27:34.092Z,4.70
2022-10-18T10:30:21.338Z,5.47
2022-10-18T10:32:52.068Z,4.95
2022-10-18T10:35:53.211Z,4.90
2022-10-18T10:38:28.668Z,5.43
2022-10-18T10:40:56.816Z,5.00
2022-10-18T10:43:39.219Z,5.07
2022-10-18T10:46:13.689Z,4.40
2022-10-18T10:48:46.793Z,4.65
2022-10-18T10:51:16.473Z,5.25
2022-10-18T10:53:53.146Z,5.22
2022-10-18T10:56:27.530Z,4.60
2022-10-18T10:58:58.343Z,5.10
2022-10-18T11:01:32.499Z,4.47
2022-10-18T11:04:02.970Z,4.88
2022-10-18T11:06:49.009Z,4.57
2022-10-18T11:09:26.894Z,4.20
2022-10-18T11:12:21.709Z,4.60
2022-10-18T11:15:00.060Z,4.28
2022-10-18T11:17:39.761Z,5.13
2022-10-18T11:20:12.778Z,3.72
2022-10-18T11:23:12.723Z,4.32
2022-10-18T11:26:06.096Z,3.95
2022-10-18T11:31:11.488Z,4.18
2022-10-18T11:34:10.612Z,4.20
2022-10-18T11:37:09.672Z,5.22
2022-10-18T11:40:14.770Z,4.40
2022-10-18T11:43:14.148Z,3.92
2022-10-18T11:46:12.592Z,4.60
2022-10-18T11:48:48.414Z,3.67
2022-10-18T11:51:56.311Z,4.10
2022-10-18T11:55:02.504Z,4.97
2022-10-18T11:57:56.884Z,4.80
2022-10-18T12:00:39.452Z,3.58
2022-10-18T12:03:15.624Z,3.78
2022-10-18T12:05:46.328Z,3.67
2022-10-18T12:08:17.638Z,3.92
2022-10-18T12:11:04.418Z,3.53
2022-10-18T12:13:54.079Z,3.55
2022-10-18T12:16:49.259Z,3.58
2022-10-18T12:19:23.725Z,3.72
2022-10-18T12:22:00.641Z,3.80
2022-10-18T12:24:30.560Z,4.03
2022-10-18T12:27:00.546Z,3.70
2022-10-18T12:29:30.731Z,3.92
2022-10-18T12:32:01.334Z,3.50
2022-10-18T12:34:53.322Z,3.67
2022-10-18T12:37:39.111Z,3.28
2022-10-18T12:40:22.092Z,3.28
2022-10-18T12:45:33.619Z,3.47
2022-10-18T12:48:08.873Z,3.72
2022-10-18T12:50:42.503Z,3.60
2022-10-18T12:53:16.494Z,3.63
2022-10-18T12:55:48.342Z,3.83
2022-10-18T12:58:20.412Z,3.80
2022-10-18T13:00:48.303Z,3.88
2022-10-18T13:03:18.803Z,4.05
2022-10-18T13:05:54.494Z,3.60
2022-10-18T13:08:34.657Z,4.15
2022-10-18T13:11:09.959Z,3.53
2022-10-18T13:13:56.444Z,4.10
2022-10-18T13:16:30.490Z,3.58
2022-10-18T13:19:04.747Z,3.40
2022-10-18T13:21:41.170Z,3.47
2022-10-18T13:24:33.353Z,3.45
2022-10-18T13:27:37.177Z,3.45
2022-10-18T13:30:38.528Z,3.83
2022-10-18T13:33:32.077Z,3.72
2022-10-18T13:36:22.648Z,3.65
2022-10-18T13:39:04.584Z,3.47
2022-10-18T13:41:56.517Z,3.70
2022-10-18T13:44:32.069Z,3.63
2022-10-18T13:46:59.132Z,3.63
2022-10-18T13:53:29.697Z,3.75
2022-10-18T13:56:08.845Z,4.38
2022-10-18T13:59:20.066Z,3.88
2022-10-18T14:01:53.441Z,3.47
2022-10-18T14:04:29.585Z,3.72
2022-10-18T14:07:02.617Z,3.22
2022-10-18T14:09:44.346Z,3.90
2022-10-18T14:12:38.783Z,3.70
2022-10-18T14:15:16.383Z,4.32
2022-10-18T14:17:52.932Z,3.47
2022-10-18T14:20:29.871Z,3.70
2022-10-18T14:23:23.468Z,3.42
2022-10-18T14:25:50.604Z,3.20
2022-10-18T14:28:31.306Z,4.75
2022-10-18T14:31:15.486Z,3.78
2022-10-18T14:33:57.055Z,3.80
2022-10-18T14:36:27.297Z,4.13
2022-10-18T14:39:01.731Z,3.92
2022-10-18T14:44:14.299Z,4.10
2022-10-18T14:47:02.445Z,4.00
2022-10-18T14:49:30.324Z,3.95
2022-10-18T14:51:59.491Z,3.75
2022-10-18T14:54:36.658Z,3.45
2022-10-18T14:57:07.517Z,4.03
2022-10-18T14:59:42.920Z,3.95
2022-10-18T15:02:16.394Z,3.85
2022-10-18T15:04:55.537Z,3.25
2022-10-18T15:07:23.290Z,3.75
2022-10-18T15:09:50.970Z,3.78
2022-10-18T15:12:18.942Z,3.72
2022-10-18T15:14:47.059Z,3.15
2022-10-18T15:17:24.797Z,3.88
2022-10-18T15:20:20.322Z,4.55
2022-10-18T15:22:50.040Z,4.35
2022-10-18T15:25:36.033Z,4.35
2022-10-18T15:28:03.144Z,4.40
2022-10-18T15:30:39.286Z,4.97
2022-10-18T15:33:11.292Z,4.88
2022-10-18T15:35:39.774Z,3.53
2022-10-18T15:38:25.482Z,3.72
2022-10-18T15:40:53.754Z,4.00
2022-10-18T15:43:24.016Z,3.80
2022-10-18T15:46:06.904Z,3.47
2022-10-18T15:48:36.054Z,4.32
2022-10-18T15:51:06.702Z,3.78
2022-10-18T15:53:46.114Z,3.92
2022-10-18T15:56:40.411Z,4.28
2022-10-18T15:59:26.648Z,3.72
2022-10-18T16:01:56.148Z,5.18
2022-10-18T16:04:31.620Z,4.10
2022-10-18T16:07:00.224Z,4.07
2022-10-18T16:09:29.141Z,4.13
2022-10-18T16:11:58.445Z,4.25
2022-10-18T16:14:26.790Z,3.97
2022-10-18T16:17:02.171Z,4.15
2022-10-18T16:19:29.833Z,5.15
2022-10-18T16:21:57.948Z,4.82
2022-10-18T16:24:27.328Z,4.43
2022-10-18T16:26:54.451Z,4.07
2022-10-18T16:29:28.848Z,3.83
2022-10-18T16:31:58.430Z,4.05
2022-10-18T16:34:29.691Z,3.97
2022-10-18T16:36:56.757Z,3.72
2022-10-18T16:39:24.102Z,3.80
2022-10-18T16:41:51.795Z,4.03
2022-10-18T16:44:19.418Z,4.20
2022-10-18T16:46:49.908Z,4.22
2022-10-18T16:49:24.133Z,4.45
2022-10-18T16:51:52.989Z,3.67
2022-10-18T16:54:20.100Z,4.10
2022-10-18T16:56:48.139Z,4.63
2022-10-18T16:59:29.060Z,4.13
2022-10-18T17:01:56.435Z,3.85
2022-10-18T17:04:23.584Z,4.57
2022-10-18T17:06:52.368Z,4.53
2022-10-18T17:09:19.410Z,4.47
2022-10-18T17:11:46.435Z,3.90
2022-10-18T17:14:13.480Z,5.40
2022-10-18T17:16:40.514Z,3.97
2022-10-18T17:19:10.762Z,4.78
2022-10-18T17:21:37.990Z,3.90
2022-10-18T17:24:06.349Z,4.10
2022-10-18T17:26:34.133Z,3.85
2022-10-18T17:29:05.257Z,4.18
2022-10-18T17:31:32.995Z,4.20
2022-10-18T17:34:02.114Z,4.22
2022-10-18T17:36:31.251Z,4.53
2022-10-18T17:38:58.961Z,4.70
2022-10-18T17:41:26.375Z,4.50
2022-10-18T17:43:53.476Z,4.28
2022-10-18T17:46:20.742Z,4.15
2022-10-18T17:48:47.930Z,4.03
2022-10-18T17:51:17.308Z,4.65
2022-10-18T17:53:46.884Z,3.47
2022-10-18T17:56:15.685Z,4.10
2022-10-18T17:58:48.268Z,4.68
2022-10-18T18:01:21.889Z,4.35
2022-10-18T18:03:49.490Z,4.07
2022-10-18T18:06:19.415Z,4.40
2022-10-18T18:08:48.188Z,4.60
2022-10-18T18:11:16.218Z,4.22
2022-10-18T18:13:43.491Z,4.53
2022-10-18T18:16:20.059Z,4.57
2022-10-18T18:18:53.553Z,3.97
2022-10-18T18:21:21.473Z,4.40
2022-10-18T18:23:49.753Z,5.10
2022-10-18T18:26:18.369Z,4.00
2022-10-18T18:28:45.672Z,4.28
2022-10-18T18:31:24.889Z,4.45
2022-10-18T18:33:54.348Z,4.38
2022-10-18T18:36:22.260Z,4.35
2022-10-18T18:38:55.448Z,4.53
2022-10-18T18:41:26.367Z,4.90
2022-10-18T18:43:55.963Z,5.03
2022-10-18T18:46:24.300Z,4.43
2022-10-18T18:48:51.535Z,4.88
2022-10-18T18:51:21.113Z,5.05
2022-10-18T18:53:49.088Z,5.20
2022-10-18T18:56:18.962Z,5.60
2022-10-18T18:58:46.655Z,6.35
2022-10-18T19:01:19.761Z,6.05
2022-10-18T19:03:49.484Z,6.18
2022-10-18T19:06:20.226Z,4.95
2022-10-18T19:08:48.130Z,5.30
2022-10-18T19:11:21.482Z,4.72
2022-10-18T19:13:49.923Z,5.07
2022-10-18T19:16:26.164Z,5.43
2022-10-18T19:19:08.280Z,5.25
2022-10-18T19:21:38.134Z,4.78
2022-10-18T19:24:06.136Z,5.45
2022-10-18T19:26:37.386Z,5.43
2022-10-18T19:29:11.125Z,5.55
2022-10-18T19:31:39.312Z,4.88
2022-10-18T19:34:08.854Z,5.45
2022-10-18T19:36:36.635Z,4.68
2022-10-18T19:39:04.635Z,4.78
2022-10-18T19:41:31.915Z,4.93
2022-10-18T19:43:59.037Z,5.00
2022-10-18T19:46:26.639Z,5.32
2022-10-18T19:48:54.462Z,4.57
2022-10-18T19:51:22.957Z,5.40
2022-10-18T19:53:52.904Z,4.47
2022-10-18T19:56:23.399Z,5.18
2022-10-18T19:58:51.167Z,5.40
2022-10-18T20:01:18.997Z,5.13
2022-10-18T20:03:50.124Z,5.35
2022-10-18T20:06:17.541Z,5.57
2022-10-18T20:08:44.840Z,5.85
2022-10-18T20:11:15.541Z,5.53
2022-10-18T20:13:42.720Z,5.65
2022-10-18T20:16:11.275Z,5.72
2022-10-18T20:18:38.934Z,5.63
2022-10-18T20:21:07.559Z,5.85
2022-10-18T20:23:39.522Z,5.72
2022-10-18T20:26:17.985Z,5.90
2022-10-18T20:28:49.409Z,5.85
2022-10-18T20:31:18.083Z,4.90
2022-10-18T20:33:47.057Z,5.55
2022-10-18T20:36:16.443Z,5.68
2022-10-18T20:38:45.475Z,5.65
2022-10-18T20:41:15.120Z,6.05
2022-10-18T20:43:43.323Z,6.40
2022-10-18T20:46:10.994Z,5.88
2022-10-18T20:48:39.110Z,5.47
2022-10-18T20:51:09.467Z,5.43
2022-10-18T20:53:37.528Z,5.65
2022-10-18T20:56:07.948Z,5.47
2022-10-18T20:58:36.993Z,5.78
2022-10-18T21:01:11.905Z,5.35
2022-10-18T21:03:41.834Z,6.03
2022-10-18T21:06:13.904Z,5.88
2022-10-18T21:08:41.719Z,4.88
2022-10-18T21:11:10.441Z,5.93
2022-10-18T21:13:38.195Z,5.47
2022-10-18T21:16:05.994Z,5.65
2022-10-18T21:18:35.147Z,5.30
2022-10-18T21:21:28.668Z,5.07
2022-10-18T21:26:25.349Z,5.70
2022-10-18T21:28:54.619Z,5.80
2022-10-18T21:31:24.028Z,5.60
2022-10-18T21:34:03.237Z,5.72
2022-10-18T21:36:32.371Z,5.47
2022-10-18T21:38:59.458Z,5.50
2022-10-18T21:41:26.820Z,5.30
2022-10-18T21:43:55.348Z,5.38
2022-10-18T21:46:24.017Z,6.30
2022-10-18T21:48:53.172Z,5.43
2022-10-18T21:51:22.533Z,5.97
2022-10-18T21:53:51.697Z,5.85
2022-10-18T21:56:26.211Z,5.38
2022-10-18T21:58:53.527Z,5.95
2022-10-18T22:01:22.176Z,5.70
2022-10-18T22:03:51.768Z,6.00
2022-10-18T22:06:19.679Z,5.95
2022-10-18T22:08:51.724Z,5.70
2022-10-18T22:11:21.732Z,6.18
2022-10-18T22:13:52.496Z,6.88
2022-10-18T22:16:19.867Z,5.65
2022-10-18T22:18:48.588Z,5.55
2022-10-18T22:21:18.369Z,5.72
2022-10-18T22:23:48.059Z,6.00
2022-10-18T22:26:22.561Z,5.95
2022-10-18T22:28:56.398Z,6.68
2022-10-18T22:31:27.126Z,5.97
2022-10-18T22:33:58.782Z,6.40
2022-10-18T22:36:26.513Z,6.57
2022-10-18T22:38:53.786Z,6.07
2022-10-18T22:41:20.847Z,6.32
2022-10-18T22:43:49.988Z,6.60
2022-10-18T22:46:17.770Z,6.05
2022-10-18T22:48:45.330Z,7.22
2022-10-18T22:51:12.734Z,5.93
2022-10-18T22:53:40.579Z,6.30
2022-10-18T22:56:10.110Z,6.25
2022-10-18T22:58:37.167Z,6.05
